Time;durP1;ratioP1;P1;durP2;ratioP2;P2;SDS_P1;SDS_P2;PMS_P1;PMS_P2;Temp;Humidity;BMP_temperature;BMP_pressure;BME280_temperature;BME280_humidity;BME280_pressure;Samples;Min_cycle;Max_cycle;Signal;HPM_P1;HPM_P2
2023/05/12 00:01:53;;;;;;;5.47;2.65;;;;;;;;;;13000182;19;20006;-62
2023/05/12 00:06:12;;;;;;;3.67;2.00;;;;;;;;;;13002061;19;20011;-62
2023/05/12 00:10:29;;;;;;;3.85;2.13;;;;;;;;;;13011286;19;20007;-62
2023/05/12 00:14:47;;;;;;;;;;;;;;;;;;13010128;19;20010;-62
2023/05/12 00:19:05;;;;;;;3.67;1.60;;;;;;;;;;13009362;19;19926;-62
2023/05/12 00:23:22;;;;;;;4.95;1.85;;;;;;;;;;13011224;19;20038;-62
2023/05/12 00:27:40;;;;;;;3.47;1.90;;;;;;;;;;13010795;19;20006;-62
2023/05/12 00:31:58;;;;;;;4.15;2.00;;;;;;;;;;13010068;19;20103;-62
2023/05/12 00:36:16;;;;;;;;;;;;;;;;;;13010116;19;20014;-62
2023/05/12 00:40:33;;;;;;;4.47;2.25;;;;;;;;;;13009060;19;19917;-62
2023/05/12 00:44:51;;;;;;;5.20;2.17;;;;;;;;;;13008263;19;20006;-62
2023/05/12 00:49:09;;;;;;;3.47;1.80;;;;;;;;;;13009246;19;20056;-62
2023/05/12 00:53:27;;;;;;;4.75;2.33;;;;;;;;;;13009412;19;20018;-62
2023/05/12 00:58:01;;;;;;;4.53;2.15;;;;;;;;;;13006449;19;20011;-64
2023/05/12 01:02:20;;;;;;;4.18;1.95;;;;;;;;;;13007494;19;20006;-62
2023/05/12 01:06:48;;;;;;;5.95;2.15;;;;;;;;;;13008620;19;20035;-62
2023/05/12 01:11:05;;;;;;;9.20;2.40;;;;;;;;;;13006374;19;20019;-62
2023/05/12 01:15:23;;;;;;;6.22;2.13;;;;;;;;;;13008371;19;20007;-62
2023/05/12 01:19:51;;;;;;;4.22;1.90;;;;;;;;;;13005236;19;20006;-62
2023/05/12 01:24:11;;;;;;;6.70;1.77;;;;;;;;;;13006829;19;20014;-62
2023/05/12 01:28:28;;;;;;;5.18;2.30;;;;;;;;;;13007031;19;20019;-62
2023/05/12 01:32:46;;;;;;;4.43;1.80;;;;;;;;;;13005719;19;20011;-62
2023/05/12 01:37:04;;;;;;;3.78;1.90;;;;;;;;;;13006118;19;20006;-62
2023/05/12 01:41:21;;;;;;;2.78;1.60;;;;;;;;;;13006472;19;20038;-63
2023/05/12 01:45:39;;;;;;;4.10;2.45;;;;;;;;;;13006259;19;20003;-63
2023/05/12 01:49:57;;;;;;;2.55;1.88;;;;;;;;;;13006214;19;20382;-62
2023/05/12 01:54:14;;;;;;;3.67;1.88;;;;;;;;;;13004898;19;20026;-63
2023/05/12 01:58:32;;;;;;;4.38;2.00;;;;;;;;;;13005277;19;20126;-62
2023/05/12 02:02:50;;;;;;;3.17;1.80;;;;;;;;;;13005679;19;20007;-63
2023/05/12 02:07:08;;;;;;;3.63;2.20;;;;;;;;;;13004267;19;20021;-63
2023/05/12 02:11:26;;;;;;;4.28;2.00;;;;;;;;;;13005518;19;20014;-62
2023/05/12 02:15:44;;;;;;;5.10;2.55;;;;;;;;;;13004625;19;20006;-63
2023/05/12 02:20:04;;;;;;;5.22;1.73;;;;;;;;;;13003455;19;20010;-63
2023/05/12 02:24:21;;;;;;;4.88;2.50;;;;;;;;;;13004564;19;20327;-63
2023/05/12 02:28:39;;;;;;;3.60;1.63;;;;;;;;;;13003826;19;20006;-63
2023/05/12 02:32:57;;;;;;;;;;;;;;;;;;13004278;19;20021;-62
2023/05/12 02:37:14;;;;;;;4.47;2.08;;;;;;;;;;13002814;19;19911;-63
2023/05/12 02:41:32;;;;;;;4.18;2.13;;;;;;;;;;13002777;19;20026;-62
2023/05/12 02:45:50;;;;;;;2.75;1.77;;;;;;;;;;13002921;19;20473;-62
2023/05/12 02:50:08;;;;;;;3.28;1.80;;;;;;;;;;13001976;19;20018;-63
2023/05/12 02:54:26;;;;;;;4.32;2.50;;;;;;;;;;13002110;19;20007;-62
2023/05/12 02:58:44;;;;;;;2.60;1.75;;;;;;;;;;13002569;19;20013;-62
2023/05/12 03:03:02;;;;;;;2.38;1.60;;;;;;;;;;13001426;19;20006;-63
2023/05/12 03:07:20;;;;;;;3.85;1.45;;;;;;;;;;13002222;19;20006;-63
2023/05/12 03:11:38;;;;;;;6.68;1.88;;;;;;;;;;13001836;19;20354;-62
2023/05/12 03:15:59;;;;;;;5.43;2.58;;;;;;;;;;13001747;19;20017;-63
2023/05/12 03:20:18;;;;;;;6.00;2.70;;;;;;;;;;13001066;19;20010;-63
2023/05/12 03:24:37;;;;;;;4.85;1.98;;;;;;;;;;13001603;19;20014;-63
2023/05/12 03:28:54;;;;;;;8.00;2.65;;;;;;;;;;13001197;19;20038;-63
2023/05/12 03:33:12;;;;;;;5.07;2.50;;;;;;;;;;13000380;19;20021;-62
2023/05/12 03:37:30;;;;;;;5.20;2.85;;;;;;;;;;13000698;19;20352;-63
2023/05/12 03:41:47;;;;;;;11.30;3.90;;;;;;;;;;13005235;19;20107;-63
2023/05/12 03:46:05;;;;;;;6.05;2.38;;;;;;;;;;13012175;19;20025;-63
2023/05/12 03:50:22;;;;;;;10.27;2.92;;;;;;;;;;13012804;19;20009;-63
2023/05/12 03:54:40;;;;;;;4.88;2.53;;;;;;;;;;13012536;19;20066;-62
2023/05/12 03:58:58;;;;;;;5.20;2.35;;;;;;;;;;13010797;19;20011;-63
2023/05/12 04:03:34;;;;;;;11.93;4.00;;;;;;;;;;13011363;19;20018;-63
2023/05/12 04:07:51;;;;;;;8.10;3.35;;;;;;;;;;13012142;19;20476;-63
2023/05/12 04:12:10;;;;;;;9.13;3.17;;;;;;;;;;13010816;19;20039;-63
2023/05/12 04:16:27;;;;;;;11.88;3.33;;;;;;;;;;13011661;19;20006;-63
2023/05/12 04:20:45;;;;;;;6.03;2.20;;;;;;;;;;13010081;19;20014;-63
2023/05/12 04:25:03;;;;;;;7.88;3.75;;;;;;;;;;13010313;19;20006;-63
2023/05/12 04:29:21;;;;;;;;;;;;;;;;;;13011323;19;20067;-63
2023/05/12 04:33:39;;;;;;;10.93;4.30;;;;;;;;;;13010782;19;20291;-63
2023/05/12 04:37:57;;;;;;;7.25;3.22;;;;;;;;;;13011195;19;20003;-62
2023/05/12 04:42:14;;;;;;;7.95;2.63;;;;;;;;;;13008019;19;20018;-63
2023/05/12 04:46:32;;;;;;;5.30;2.05;;;;;;;;;;13010106;19;20018;-62
2023/05/12 04:50:50;;;;;;;8.35;3.55;;;;;;;;;;13009795;19;20030;-62
2023/05/12 04:55:08;;;;;;;5.30;2.38;;;;;;;;;;13007778;19;20010;-62
2023/05/12 04:59:25;;;;;;;;;;;;;;;;;;13008986;19;20018;-63
2023/05/12 05:03:43;;;;;;;7.07;2.13;;;;;;;;;;13009219;19;19918;-63
2023/05/12 05:08:01;;;;;;;4.00;1.85;;;;;;;;;;13007953;19;20465;-65
2023/05/12 05:12:19;;;;;;;5.50;2.75;;;;;;;;;;13008363;19;20007;-62
2023/05/12 05:16:37;;;;;;;6.32;2.78;;;;;;;;;;13007853;19;20034;-63
2023/05/12 05:20:55;;;;;;;6.68;3.10;;;;;;;;;;13006878;19;20002;-63
2023/05/12 05:25:15;;;;;;;4.05;2.35;;;;;;;;;;13007321;19;20014;-62
2023/05/12 05:29:33;;;;;;;;;;;;;;;;;;13008212;19;20011;-61
2023/05/12 05:33:50;;;;;;;4.22;2.28;;;;;;;;;;13007262;19;19923;-63
2023/05/12 05:38:08;;;;;;;3.42;1.70;;;;;;;;;;13006354;19;20342;-62
2023/05/12 05:42:26;;;;;;;7.47;2.03;;;;;;;;;;13005469;19;20006;-63
2023/05/12 05:46:43;;;;;;;4.43;2.65;;;;;;;;;;13006531;19;19998;-63
2023/05/12 05:51:01;;;;;;;3.58;1.52;;;;;;;;;;13006430;19;20042;-63
2023/05/12 05:55:20;;;;;;;5.03;2.42;;;;;;;;;;13005721;19;20352;-63
2023/05/12 05:59:38;;;;;;;3.13;2.00;;;;;;;;;;13005685;19;20006;-63
2023/05/12 06:03:56;;;;;;;2.97;1.80;;;;;;;;;;13005026;19;20327;-63
2023/05/12 06:08:14;;;;;;;3.63;1.85;;;;;;;;;;13005180;19;20354;-63
2023/05/12 06:12:32;;;;;;;6.13;2.20;;;;;;;;;;13004740;19;20011;-63
2023/05/12 06:16:50;;;;;;;2.33;1.15;;;;;;;;;;13005353;19;20021;-63
2023/05/12 06:21:08;;;;;;;4.18;2.10;;;;;;;;;;13003328;19;20007;-63
2023/05/12 06:25:26;;;;;;;2.45;1.35;;;;;;;;;;13004531;19;20022;-63
2023/05/12 06:29:44;;;;;;;;;;;;;;;;;;13005435;19;20009;-63
2023/05/12 06:34:01;;;;;;;3.00;1.67;;;;;;;;;;13003617;19;19917;-64
2023/05/12 06:38:20;;;;;;;2.13;1.38;;;;;;;;;;13003877;19;19999;-63
2023/05/12 06:42:37;;;;;;;2.67;1.80;;;;;;;;;;13002385;19;20010;-63
2023/05/12 06:46:56;;;;;;;3.63;1.48;;;;;;;;;;13003812;19;20152;-64
2023/05/12 06:51:13;;;;;;;3.15;1.80;;;;;;;;;;13002208;19;20006;-63
2023/05/12 06:55:31;;;;;;;2.58;1.33;;;;;;;;;;13002808;19;20010;-63
2023/05/12 06:59:49;;;;;;;1.92;1.13;;;;;;;;;;13002302;19;20007;-63
2023/05/12 07:04:07;;;;;;;1.30;0.88;;;;;;;;;;13001131;19;19999;-65
2023/05/12 07:08:26;;;;;;;2.70;1.42;;;;;;;;;;13002473;19;20026;-63
2023/05/12 07:12:44;;;;;;;3.50;1.70;;;;;;;;;;13002133;19;20011;-63
2023/05/12 07:17:02;;;;;;;2.42;1.50;;;;;;;;;;12997373;19;20051;-63
2023/05/12 07:21:20;;;;;;;2.47;1.55;;;;;;;;;;13001172;19;20006;-63
2023/05/12 07:25:38;;;;;;;2.22;1.08;;;;;;;;;;13001962;19;20022;-63
2023/05/12 07:29:56;;;;;;;4.75;1.85;;;;;;;;;;13001673;19;20010;-64
2023/05/12 07:34:14;;;;;;;2.13;1.42;;;;;;;;;;13001067;19;20015;-63
2023/05/12 07:38:31;;;;;;;6.65;1.55;;;;;;;;;;13001481;19;20350;-64
2023/05/12 07:42:49;;;;;;;10.18;1.60;;;;;;;;;;12999946;19;20014;-64
2023/05/12 07:47:07;;;;;;;3.35;1.35;;;;;;;;;;12999782;19;20017;-63
2023/05/12 07:51:25;;;;;;;4.43;1.42;;;;;;;;;;13000340;19;20015;-63
2023/05/12 07:55:42;;;;;;;2.45;1.60;;;;;;;;;;13000124;19;20014;-63
2023/05/12 08:00:00;;;;;;;1.42;0.93;;;;;;;;;;12999827;19;20026;-64
2023/05/12 08:04:21;;;;;;;2.50;1.35;;;;;;;;;;12999602;19;20007;-63
2023/05/12 08:08:38;;;;;;;;;;;;;;;;;;13000092;19;20362;-63
2023/05/12 08:12:56;;;;;;;4.57;2.08;;;;;;;;;;12998998;19;19919;-63
2023/05/12 08:17:14;;;;;;;;;;;;;;;;;;12998703;19;20038;-63
2023/05/12 08:21:31;;;;;;;0.98;0.70;;;;;;;;;;12998530;19;19907;-63
2023/05/12 08:25:49;;;;;;;4.05;1.90;;;;;;;;;;12998524;19;20002;-64
2023/05/12 08:30:08;;;;;;;1.38;0.65;;;;;;;;;;13010128;19;20018;-63
2023/05/12 08:34:26;;;;;;;10.88;1.20;;;;;;;;;;13011186;19;20338;-63
2023/05/12 08:38:44;;;;;;;;;;;;;;;;;;13009713;19;20110;-63
2023/05/12 08:43:28;;;;;;;1.70;1.10;;;;;;;;;;13007413;19;19911;-67
2023/05/12 08:47:46;;;;;;;3.92;1.50;;;;;;;;;;13009906;19;20363;-63
2023/05/12 08:52:05;;;;;;;;;;;;;;;;;;13009450;19;20006;-63
2023/05/12 08:56:23;;;;;;;4.90;1.40;;;;;;;;;;13008245;19;19925;-63
2023/05/12 09:00:44;;;;;;;3.22;1.83;;;;;;;;;;13008007;19;20027;-63
2023/05/12 09:05:02;;;;;;;2.97;0.80;;;;;;;;;;13008309;19;20011;-64
2023/05/12 09:09:20;;;;;;;1.58;1.27;;;;;;;;;;13008757;19;20003;-63
2023/05/12 09:14:07;;;;;;;;;;;;;;;;;;13009873;19;20043;-63
2023/05/12 09:18:25;;;;;;;2.53;1.42;;;;;;;;;;13008221;19;19930;-63
2023/05/12 09:22:42;;;;;;;3.55;1.70;;;;;;;;;;13006991;19;20021;-64
2023/05/12 09:27:00;;;;;;;1.05;0.70;;;;;;;;;;13007943;19;20003;-63
2023/05/12 09:31:23;;;;;;;3.60;1.75;;;;;;;;;;13007352;19;20014;-63
2023/05/12 09:35:45;;;;;;;1.05;0.98;;;;;;;;;;13007261;19;20361;-63
2023/05/12 09:40:05;;;;;;;4.13;1.52;;;;;;;;;;13003797;19;20356;-65
2023/05/12 09:44:24;;;;;;;2.65;1.67;;;;;;;;;;13006606;19;20002;-63
2023/05/12 09:48:42;;;;;;;4.82;1.65;;;;;;;;;;13006740;19;20434;-63
2023/05/12 09:53:00;;;;;;;2.17;1.27;;;;;;;;;;13005898;19;20327;-63
2023/05/12 09:57:21;;;;;;;2.55;1.55;;;;;;;;;;13005644;19;20018;-64
2023/05/12 10:01:40;;;;;;;3.55;1.90;;;;;;;;;;13005401;19;20465;-64
2023/05/12 10:06:01;;;;;;;2.75;1.27;;;;;;;;;;13005101;19;20014;-64
2023/05/12 10:10:25;;;;;;;3.47;1.50;;;;;;;;;;13004013;19;20042;-63
2023/05/12 10:14:42;;;;;;;3.13;1.38;;;;;;;;;;13005174;19;20014;-63
2023/05/12 10:19:02;;;;;;;;;;;;;;;;;;13005475;19;20013;-63
2023/05/12 10:23:20;;;;;;;2.40;1.38;;;;;;;;;;13002770;19;19922;-63
2023/05/12 10:27:38;;;;;;;;;;;;;;;;;;13004450;19;20014;-63
2023/05/12 10:31:56;;;;;;;1.65;1.10;;;;;;;;;;13003700;19;19918;-63
2023/05/12 10:36:18;;;;;;;4.38;1.38;;;;;;;;;;13001535;19;20022;-63
2023/05/12 10:40:57;;;;;;;3.28;1.38;;;;;;;;;;13003016;19;20356;-64
2023/05/12 10:45:17;;;;;;;5.50;0.90;;;;;;;;;;13002965;19;20002;-64
2023/05/12 10:49:40;;;;;;;1.50;0.55;;;;;;;;;;13001704;19;20003;-64
2023/05/12 10:54:03;;;;;;;1.40;0.80;;;;;;;;;;13003577;19;20011;-63
2023/05/12 10:58:21;;;;;;;4.25;1.48;;;;;;;;;;13003679;19;20038;-63
2023/05/12 11:02:48;;;;;;;;;;;;;;;;;;13003321;19;20007;-63
2023/05/12 11:07:09;;;;;;;2.22;0.80;;;;;;;;;;13001708;19;19922;-64
2023/05/12 11:11:29;;;;;;;1.45;1.00;;;;;;;;;;13003217;19;20002;-63
2023/05/12 11:15:46;;;;;;;2.10;0.82;;;;;;;;;;13001474;19;20006;-63
2023/05/12 11:20:05;;;;;;;;;;;;;;;;;;13002389;19;20009;-63
2023/05/12 11:24:23;;;;;;;2.85;1.10;;;;;;;;;;13002473;19;20430;-63
2023/05/12 11:28:41;;;;;;;2.63;1.08;;;;;;;;;;13002910;19;19999;-63
2023/05/12 11:33:01;;;;;;;0.73;0.57;;;;;;;;;;13002196;19;20022;-63
2023/05/12 11:37:22;;;;;;;3.75;1.20;;;;;;;;;;13001331;19;20095;-63
2023/05/12 11:41:40;;;;;;;1.05;0.85;;;;;;;;;;13000686;19;20014;-64
2023/05/12 11:45:58;;;;;;;5.68;0.80;;;;;;;;;;13000125;19;20015;-63
2023/05/12 11:50:21;;;;;;;2.50;0.85;;;;;;;;;;13000494;19;20010;-63
2023/05/12 11:55:05;;;;;;;0.25;0.20;;;;;;;;;;13000017;19;20352;-63
2023/05/12 11:59:32;;;;;;;1.67;0.88;;;;;;;;;;12999908;19;20512;-63
2023/05/12 12:03:52;;;;;;;1.77;0.95;;;;;;;;;;13008284;19;20002;-63
2023/05/12 12:08:15;;;;;;;1.15;0.70;;;;;;;;;;13011636;19;20422;-64
2023/05/12 12:12:33;;;;;;;4.20;1.20;;;;;;;;;;13012419;19;20018;-64
2023/05/12 12:16:50;;;;;;;;;;;;;;;;;;13012720;19;20017;-64
2023/05/12 12:21:08;;;;;;;0.68;0.43;;;;;;;;;;13009876;19;19931;-64
2023/05/12 12:25:25;;;;;;;1.38;0.82;;;;;;;;;;13010975;19;20303;-64
2023/05/12 12:29:43;;;;;;;1.25;0.77;;;;;;;;;;13011043;19;20007;-63
2023/05/12 12:34:02;;;;;;;;;;;;;;;;;;13011160;19;20350;-64
2023/05/12 12:38:20;;;;;;;7.60;1.35;;;;;;;;;;13010353;19;19923;-63
2023/05/12 12:42:39;;;;;;;;;;;;;;;;;;13009838;19;20011;-63
2023/05/12 12:46:57;;;;;;;0.73;0.50;;;;;;;;;;13010035;19;19914;-64
2023/05/12 12:51:15;;;;;;;1.13;0.90;;;;;;;;;;13009275;19;20010;-63
2023/05/12 12:55:32;;;;;;;2.58;1.08;;;;;;;;;;13008318;19;20390;-64
2023/05/12 12:59:50;;;;;;;0.70;0.70;;;;;;;;;;13009104;19;20358;-64
2023/05/12 13:04:08;;;;;;;;;;;;;;;;;;13008946;19;20018;-63
2023/05/12 13:08:26;;;;;;;0.77;0.60;;;;;;;;;;13008819;19;20014;-64
2023/05/12 13:12:43;;;;;;;3.28;0.63;;;;;;;;;;13006570;19;20015;-63
2023/05/12 13:17:01;;;;;;;;;;;;;;;;;;13007568;19;20011;-68
2023/05/12 13:21:18;;;;;;;;;;;;;;;;;;13007942;19;19915;-63
2023/05/12 13:25:39;;;;;;;7.40;1.10;;;;;;;;;;13006738;19;19935;-63
2023/05/12 13:29:57;;;;;;;1.85;1.08;;;;;;;;;;13007768;19;19998;-63
2023/05/12 13:34:14;;;;;;;3.28;1.02;;;;;;;;;;13006755;19;20018;-63
2023/05/12 13:38:32;;;;;;;5.18;1.15;;;;;;;;;;13005264;19;20015;-63
2023/05/12 13:42:50;;;;;;;0.90;0.77;;;;;;;;;;13005654;19;20006;-63
2023/05/12 13:47:09;;;;;;;1.20;0.70;;;;;;;;;;13005733;19;20006;-64
2023/05/12 13:51:26;;;;;;;1.00;0.73;;;;;;;;;;13006129;19;20382;-63
2023/05/12 13:55:44;;;;;;;1.75;0.85;;;;;;;;;;13006422;19;20473;-63
2023/05/12 14:00:03;;;;;;;0.80;0.55;;;;;;;;;;13005499;19;20025;-63
2023/05/12 14:04:22;;;;;;;3.33;1.45;;;;;;;;;;13004954;19;20018;-64
2023/05/12 14:08:40;;;;;;;3.13;1.02;;;;;;;;;;13006066;19;20462;-63
2023/05/12 14:12:58;;;;;;;1.85;1.00;;;;;;;;;;13005697;19;20010;-63
2023/05/12 14:17:16;;;;;;;2.15;0.80;;;;;;;;;;13003229;19;20342;-63
2023/05/12 14:21:34;;;;;;;1.88;0.75;;;;;;;;;;13003032;19;20038;-63
2023/05/12 14:25:52;;;;;;;4.93;1.13;;;;;;;;;;13002917;19;20488;-63
2023/05/12 14:30:09;;;;;;;2.53;1.35;;;;;;;;;;13003651;19;20359;-63
2023/05/12 14:34:27;;;;;;;4.10;0.98;;;;;;;;;;13004394;19;20021;-63
2023/05/12 14:38:45;;;;;;;;;;;;;;;;;;13004297;19;20010;-63
2023/05/12 14:43:02;;;;;;;;;;;;;;;;;;13001908;19;19914;-63
2023/05/12 14:47:21;;;;;;;1.55;0.70;;;;;;;;;;13003315;19;19938;-63
2023/05/12 14:51:39;;;;;;;;;;;;;;;;;;13003834;19;20039;-63
2023/05/12 14:55:57;;;;;;;1.33;0.70;;;;;;;;;;13003268;19;19922;-62
2023/05/12 15:00:16;;;;;;;1.70;0.95;;;;;;;;;;13002064;19;20007;-63
2023/05/12 15:04:34;;;;;;;2.97;0.57;;;;;;;;;;13001753;19;20014;-63
2023/05/12 15:08:51;;;;;;;1.10;1.00;;;;;;;;;;13001793;19;20030;-63
2023/05/12 15:13:11;;;;;;;1.48;1.00;;;;;;;;;;13001207;19;20362;-63
2023/05/12 15:17:29;;;;;;;3.13;1.13;;;;;;;;;;13001066;19;20015;-64
2023/05/12 15:21:47;;;;;;;1.00;0.70;;;;;;;;;;13000471;19;20026;-64
2023/05/12 15:26:06;;;;;;;3.33;1.60;;;;;;;;;;12999872;19;20470;-63
2023/05/12 15:30:44;;;;;;;2.53;0.70;;;;;;;;;;13000702;19;20014;-64
2023/05/12 15:35:02;;;;;;;6.45;1.10;;;;;;;;;;13000412;19;20018;-64
2023/05/12 15:39:19;;;;;;;0.88;0.50;;;;;;;;;;13008974;19;20373;-63
2023/05/12 15:43:39;;;;;;;0.80;0.75;;;;;;;;;;13011823;19;20010;-63
2023/05/12 15:47:57;;;;;;;2.08;0.93;;;;;;;;;;13012635;19;20014;-64
2023/05/12 15:52:15;;;;;;;1.33;1.08;;;;;;;;;;13012640;19;20442;-64
2023/05/12 15:56:33;;;;;;;1.77;0.88;;;;;;;;;;13012495;19;20492;-63
2023/05/12 16:00:53;;;;;;;1.73;0.55;;;;;;;;;;13011752;19;20030;-64
2023/05/12 16:05:11;;;;;;;1.20;0.90;;;;;;;;;;13011422;19;20075;-63
2023/05/12 16:09:28;;;;;;;;;;;;;;;;;;13012443;19;20018;-63
2023/05/12 16:13:46;;;;;;;1.60;0.85;;;;;;;;;;13011741;19;20343;-63
2023/05/12 16:18:05;;;;;;;2.25;1.10;;;;;;;;;;12987943;19;20029;-63
2023/05/12 16:22:27;;;;;;;1.40;0.73;;;;;;;;;;13010940;19;20469;-63
2023/05/12 16:26:44;;;;;;;3.50;1.30;;;;;;;;;;13009745;19;20035;-63
2023/05/12 16:31:03;;;;;;;2.30;1.00;;;;;;;;;;13010311;19;20014;-62
2023/05/12 16:35:21;;;;;;;4.00;1.08;;;;;;;;;;13010278;19;20046;-62
2023/05/12 16:39:39;;;;;;;1.25;0.80;;;;;;;;;;13008167;19;20046;-62
2023/05/12 16:43:56;;;;;;;2.45;1.15;;;;;;;;;;13009643;19;20114;-62
2023/05/12 16:48:15;;;;;;;2.13;1.38;;;;;;;;;;13008896;19;20010;-62
2023/05/12 16:52:32;;;;;;;4.60;2.58;;;;;;;;;;13009989;19;20473;-62
2023/05/12 16:56:51;;;;;;;4.32;1.50;;;;;;;;;;13009648;19;20022;-62
2023/05/12 17:01:09;;;;;;;3.08;1.75;;;;;;;;;;13008645;19;20007;-63
2023/05/12 17:05:27;;;;;;;3.55;1.25;;;;;;;;;;13008770;19;20007;-62
2023/05/12 17:09:45;;;;;;;5.40;1.60;;;;;;;;;;13009510;19;20013;-63
2023/05/12 17:14:03;;;;;;;1.75;1.08;;;;;;;;;;13008248;19;20462;-63
2023/05/12 17:18:23;;;;;;;2.70;1.02;;;;;;;;;;13008345;19;20034;-62
2023/05/12 17:22:43;;;;;;;1.75;1.20;;;;;;;;;;13007794;19;20088;-63
2023/05/12 17:27:00;;;;;;;3.13;1.27;;;;;;;;;;13007607;19;20118;-62
2023/05/12 17:31:18;;;;;;;1.92;1.10;;;;;;;;;;13005807;19;20473;-63
2023/05/12 17:35:36;;;;;;;2.38;1.15;;;;;;;;;;13007416;19;20014;-62
2023/05/12 17:39:54;;;;;;;5.43;1.90;;;;;;;;;;13007451;19;20014;-63
2023/05/12 17:44:11;;;;;;;6.50;2.15;;;;;;;;;;13004887;19;20003;-63
2023/05/12 17:48:32;;;;;;;2.58;1.85;;;;;;;;;;13006246;19;20009;-63
2023/05/12 17:52:53;;;;;;;9.70;2.40;;;;;;;;;;13006377;19;20006;-65
2023/05/12 17:57:11;;;;;;;5.63;2.00;;;;;;;;;;13005421;19;20018;-62
2023/05/12 18:01:28;;;;;;;4.35;1.90;;;;;;;;;;13003914;19;20010;-62
2023/05/12 18:05:47;;;;;;;6.18;1.48;;;;;;;;;;13005259;19;20002;-62
2023/05/12 18:10:10;;;;;;;3.95;1.75;;;;;;;;;;13004930;19;20489;-62
2023/05/12 18:14:29;;;;;;;6.70;2.22;;;;;;;;;;13004739;19;20027;-62
2023/05/12 18:18:47;;;;;;;3.67;1.67;;;;;;;;;;13004643;19;20454;-62
2023/05/12 18:23:05;;;;;;;6.30;1.98;;;;;;;;;;13002500;19;20010;-62
2023/05/12 18:27:23;;;;;;;;;;;;;;;;;;13004499;19;20338;-62
2023/05/12 18:31:42;;;;;;;5.60;1.70;;;;;;;;;;13003913;19;20007;-62
2023/05/12 18:36:01;;;;;;;4.57;2.00;;;;;;;;;;13004151;19;20011;-62
2023/05/12 18:40:19;;;;;;;4.43;2.20;;;;;;;;;;13003131;19;20007;-65
2023/05/12 18:44:39;;;;;;;3.88;1.85;;;;;;;;;;13001848;19;20034;-65
2023/05/12 18:48:57;;;;;;;2.67;1.60;;;;;;;;;;13001420;19;20027;-65
2023/05/12 18:53:14;;;;;;;3.40;1.90;;;;;;;;;;13002163;19;20360;-65
2023/05/12 18:57:32;;;;;;;11.77;3.00;;;;;;;;;;13002406;19;20007;-65
2023/05/12 19:01:50;;;;;;;8.48;4.20;;;;;;;;;;13000067;19;20011;-65
2023/05/12 19:06:08;;;;;;;3.60;1.88;;;;;;;;;;13001286;19;20002;-64
2023/05/12 19:10:26;;;;;;;3.00;2.03;;;;;;;;;;12999605;19;20007;-66
2023/05/12 19:14:43;;;;;;;2.58;1.52;;;;;;;;;;13001083;19;20493;-66
2023/05/12 19:19:01;;;;;;;2.90;1.73;;;;;;;;;;13001229;19;20021;-66
2023/05/12 19:23:19;;;;;;;3.95;1.83;;;;;;;;;;12999647;19;20007;-65
2023/05/12 19:27:37;;;;;;;4.15;1.83;;;;;;;;;;12976857;19;20341;-65
2023/05/12 19:31:54;;;;;;;5.30;2.42;;;;;;;;;;12978741;19;20014;-65
2023/05/12 19:36:12;;;;;;;;;;;;;;;;;;12999658;19;20006;-65
2023/05/12 19:40:31;;;;;;;10.32;2.83;;;;;;;;;;12998918;19;19922;-65
2023/05/12 19:44:48;;;;;;;6.55;3.05;;;;;;;;;;12998602;19;20014;-65
2023/05/12 19:49:06;;;;;;;4.78;2.70;;;;;;;;;;12998713;19;20017;-65
2023/05/12 19:53:24;;;;;;;4.85;2.72;;;;;;;;;;12999491;19;20014;-65
2023/05/12 19:57:42;;;;;;;3.28;2.40;;;;;;;;;;12999301;19;20011;-65
2023/05/12 20:02:00;;;;;;;4.38;2.08;;;;;;;;;;12998953;19;20006;-66
2023/05/12 20:06:21;;;;;;;2.85;1.70;;;;;;;;;;12997878;19;20014;-66
2023/05/12 20:10:38;;;;;;;5.63;1.88;;;;;;;;;;12998527;19;20010;-66
2023/05/12 20:14:56;;;;;;;3.17;1.88;;;;;;;;;;12999085;19;20115;-65
2023/05/12 20:19:14;;;;;;;9.80;2.20;;;;;;;;;;12997092;19;20021;-65
2023/05/12 20:23:32;;;;;;;5.68;2.30;;;;;;;;;;13002607;19;20010;-65
2023/05/12 20:27:49;;;;;;;2.67;2.13;;;;;;;;;;13010865;19;20022;-67
2023/05/12 20:32:07;;;;;;;3.55;1.80;;;;;;;;;;13009951;19;19998;-65
2023/05/12 20:36:25;;;;;;;12.00;2.40;;;;;;;;;;13010042;19;20019;-64
2023/05/12 20:40:42;;;;;;;5.20;1.83;;;;;;;;;;13008023;19;20466;-64
2023/05/12 20:45:00;;;;;;;4.60;2.10;;;;;;;;;;13008401;19;20002;-64
2023/05/12 20:49:18;;;;;;;5.10;2.60;;;;;;;;;;13008480;19;20002;-63
2023/05/12 20:53:35;;;;;;;5.40;2.45;;;;;;;;;;13008540;19;20002;-65
2023/05/12 20:57:54;;;;;;;9.00;2.30;;;;;;;;;;13009078;19;20352;-65
2023/05/12 21:02:11;;;;;;;3.60;1.90;;;;;;;;;;13007680;19;20015;-65
2023/05/12 21:06:29;;;;;;;4.05;2.00;;;;;;;;;;13008760;19;20025;-65
2023/05/12 21:10:47;;;;;;;4.35;1.92;;;;;;;;;;13009153;19;20094;-65
2023/05/12 21:15:09;;;;;;;3.25;1.77;;;;;;;;;;13007871;19;20003;-65
2023/05/12 21:19:26;;;;;;;4.15;1.90;;;;;;;;;;13007747;19;20007;-65
2023/05/12 21:23:45;;;;;;;3.55;1.70;;;;;;;;;;13007367;19;20002;-65
2023/05/12 21:28:04;;;;;;;4.53;2.58;;;;;;;;;;13006164;19;20038;-65
2023/05/12 21:32:23;;;;;;;7.57;1.80;;;;;;;;;;13005394;19;20015;-65
2023/05/12 21:36:41;;;;;;;4.13;1.75;;;;;;;;;;13004390;19;20026;-64
2023/05/12 21:40:59;;;;;;;5.68;1.83;;;;;;;;;;13006575;19;20011;-65
2023/05/12 21:45:20;;;;;;;3.42;1.70;;;;;;;;;;13005515;19;20038;-64
2023/05/12 21:49:37;;;;;;;6.45;1.60;;;;;;;;;;12983217;19;20006;-64
2023/05/12 21:53:55;;;;;;;3.60;1.77;;;;;;;;;;13006231;19;20002;-65
2023/05/12 21:58:13;;;;;;;3.63;2.00;;;;;;;;;;13005275;19;20347;-64
2023/05/12 22:02:31;;;;;;;;;;;;;;;;;;13006307;19;20006;-65
2023/05/12 22:06:49;;;;;;;5.53;1.75;;;;;;;;;;13005394;19;20346;-65
2023/05/12 22:11:07;;;;;;;7.18;1.70;;;;;;;;;;13003950;19;20010;-66
2023/05/12 22:15:25;;;;;;;3.88;1.60;;;;;;;;;;13004923;19;20144;-66
2023/05/12 22:19:43;;;;;;;5.15;2.20;;;;;;;;;;13004153;19;20345;-65
2023/05/12 22:24:00;;;;;;;3.17;1.70;;;;;;;;;;13004023;19;20011;-65
2023/05/12 22:28:18;;;;;;;5.15;1.80;;;;;;;;;;13003596;19;20017;-65
2023/05/12 22:32:36;;;;;;;3.25;1.67;;;;;;;;;;13003617;19;20009;-67
2023/05/12 22:36:53;;;;;;;7.28;2.08;;;;;;;;;;13003354;19;20043;-65
2023/05/12 22:41:11;;;;;;;3.10;1.67;;;;;;;;;;13000915;19;20017;-65
2023/05/12 22:45:29;;;;;;;2.80;1.55;;;;;;;;;;13002065;19;20045;-66
2023/05/12 22:49:47;;;;;;;4.13;1.83;;;;;;;;;;13002425;19;20006;-66
2023/05/12 22:54:04;;;;;;;2.33;1.67;;;;;;;;;;13002490;19;20010;-65
2023/05/12 22:58:22;;;;;;;2.67;1.88;;;;;;;;;;13002627;19;20344;-65
2023/05/12 23:02:39;;;;;;;2.20;1.40;;;;;;;;;;13000063;19;20014;-65
2023/05/12 23:06:57;;;;;;;4.65;1.45;;;;;;;;;;13001821;19;20014;-65
2023/05/12 23:11:15;;;;;;;4.53;1.63;;;;;;;;;;13001152;19;20461;-66
2023/05/12 23:15:32;;;;;;;4.05;2.00;;;;;;;;;;13001667;19;20014;-67
2023/05/12 23:19:53;;;;;;;4.30;1.90;;;;;;;;;;13001069;19;20015;-65
2023/05/12 23:24:11;;;;;;;7.53;2.00;;;;;;;;;;12999594;19;19999;-65
2023/05/12 23:28:28;;;;;;;4.82;2.10;;;;;;;;;;13000773;19;20492;-65
2023/05/12 23:32:49;;;;;;;3.25;2.00;;;;;;;;;;13000440;19;20031;-65
2023/05/12 23:37:07;;;;;;;8.02;2.30;;;;;;;;;;13000236;19;20010;-65
2023/05/12 23:41:24;;;;;;;2.67;1.73;;;;;;;;;;13000383;19;20030;-64
2023/05/12 23:45:44;;;;;;;5.13;2.17;;;;;;;;;;12999039;19;20006;-64
2023/05/12 23:50:03;;;;;;;5.78;2.30;;;;;;;;;;12999056;19;20477;-64
2023/05/12 23:54:21;;;;;;;3.45;1.98;;;;;;;;;;12999603;19;20326;-64
2023/05/12 23:58:41;;;;;;;2.85;2.00;;;;;;;;;;13004909;19;20013;-64
